Time;durP1;ratioP1;P1;durP2;ratioP2;P2;SDS_P1;SDS_P2;PMS_P1;PMS_P2;Temp;Humidity;BMP_temperature;BMP_pressure;BME280_temperature;BME280_humidity;BME280_pressure;Samples;Min_cycle;Max_cycle;Signal;HPM_P1;HPM_P2
2021/03/08 00:00:33;;;;;;;33.45;19.88;;;4.80;70.30;;;;;;5038521;28;20040;-76
2021/03/08 00:02:59;;;;;;;35.75;20.20;;;4.80;70.50;;;;;;5056150;28;20068;-76
2021/03/08 00:05:25;;;;;;;33.05;19.92;;;4.70;70.70;;;;;;5055898;28;20111;-76
2021/03/08 00:07:51;;;;;;;29.95;19.50;;;4.70;70.70;;;;;;5055997;28;20469;-76
2021/03/08 00:10:18;;;;;;;31.98;18.83;;;4.70;70.90;;;;;;5055762;28;20037;-76
2021/03/08 00:12:47;;;;;;;26.75;18.83;;;4.80;70.90;;;;;;5055038;28;20039;-76
2021/03/08 00:15:14;;;;;;;32.67;20.08;;;4.80;70.90;;;;;;5056051;28;20079;-76
2021/03/08 00:17:40;;;;;;;31.75;20.20;;;4.80;71.00;;;;;;5034935;28;20453;-76
2021/03/08 00:20:09;;;;;;;36.80;21.42;;;4.80;71.00;;;;;;5055911;28;20402;-76
2021/03/08 00:22:35;;;;;;;40.03;23.83;;;4.80;70.90;;;;;;5055825;28;20024;-76
2021/03/08 00:25:02;;;;;;;36.88;22.33;;;4.80;70.90;;;;;;5052744;28;20390;-76
2021/03/08 00:27:28;;;;;;;36.97;21.92;;;4.80;71.00;;;;;;5038252;28;20072;-76
2021/03/08 00:29:53;;;;;;;40.17;23.13;;;4.80;71.10;;;;;;5054484;28;20057;-76
2021/03/08 00:32:19;;;;;;;40.58;24.33;;;4.80;71.10;;;;;;5055817;28;20493;-76
2021/03/08 00:34:45;;;;;;;40.28;23.48;;;4.80;71.30;;;;;;5054428;28;20029;-76
2021/03/08 00:37:10;;;;;;;38.25;23.55;;;4.80;71.40;;;;;;5054155;28;20040;-76
2021/03/08 00:39:36;;;;;;;37.35;23.20;;;4.70;71.40;;;;;;5054336;28;20036;-76
2021/03/08 00:42:02;;;;;;;34.42;23.23;;;4.70;71.70;;;;;;5037465;28;20036;-76
2021/03/08 00:44:27;;;;;;;36.25;22.70;;;4.60;71.90;;;;;;5055205;28;20037;-76
2021/03/08 00:46:53;;;;;;;35.05;21.00;;;4.60;72.00;;;;;;5053813;28;20090;-76
2021/03/08 00:49:19;;;;;;;35.13;21.63;;;4.60;72.10;;;;;;5055305;28;20033;-76
2021/03/08 00:51:45;;;;;;;35.35;21.10;;;4.60;72.20;;;;;;5054516;28;20474;-76
2021/03/08 00:54:11;;;;;;;39.33;22.77;;;4.70;72.30;;;;;;5053436;28;20056;-76
2021/03/08 00:56:36;;;;;;;36.83;21.85;;;4.70;72.30;;;;;;5037081;28;20493;-76
2021/03/08 00:59:02;;;;;;;37.17;22.38;;;4.70;72.10;;;;;;5055089;28;20041;-76
2021/03/08 01:01:28;;;;;;;34.08;21.70;;;4.80;72.20;;;;;;5037458;28;20489;-76
2021/03/08 01:03:54;;;;;;;40.22;24.05;;;4.80;72.10;;;;;;5020906;28;20108;-76
2021/03/08 01:06:19;;;;;;;35.30;22.40;;;4.70;72.10;;;;;;5055139;28;20440;-76
2021/03/08 01:08:45;;;;;;;35.80;22.80;;;4.70;72.40;;;;;;5054072;28;20055;-76
2021/03/08 01:11:11;;;;;;;37.97;23.15;;;4.70;72.50;;;;;;5020360;28;20036;-76
2021/03/08 01:13:36;;;;;;;48.83;25.02;;;4.70;72.50;;;;;;5032795;28;20091;-76
2021/03/08 01:16:02;;;;;;;39.83;24.77;;;4.70;72.50;;;;;;5034704;28;20080;-76
2021/03/08 01:18:28;;;;;;;44.08;25.40;;;4.70;72.70;;;;;;5055020;28;20033;-76
2021/03/08 01:20:53;;;;;;;42.22;26.05;;;4.70;73.00;;;;;;5037146;28;20032;-77
2021/03/08 01:23:19;;;;;;;42.10;25.15;;;4.70;73.00;;;;;;5053241;28;20025;-77
2021/03/08 01:25:45;;;;;;;40.03;24.55;;;4.70;73.10;;;;;;5054133;28;20029;-76
2021/03/08 01:28:10;;;;;;;39.05;24.05;;;4.70;73.00;;;;;;5020328;28;20068;-77
2021/03/08 01:30:43;;;;;;;41.95;23.70;;;4.70;72.80;;;;;;5053375;28;20025;-78
2021/03/08 01:33:09;;;;;;;47.83;27.40;;;4.70;72.90;;;;;;5053128;28;20044;-78
2021/03/08 01:35:36;;;;;;;45.08;25.88;;;4.70;73.00;;;;;;5053191;28;20111;-78
2021/03/08 01:38:03;;;;;;;41.95;24.73;;;4.70;73.00;;;;;;5052791;28;20029;-78
2021/03/08 01:40:31;;;;;;;42.20;25.23;;;4.80;73.10;;;;;;5054308;28;20013;-78
2021/03/08 01:42:57;;;;;;;45.42;25.05;;;4.70;73.00;;;;;;5054198;28;20044;-78
2021/03/08 01:45:24;;;;;;;44.50;25.73;;;4.70;73.00;;;;;;5053305;28;20075;-78
2021/03/08 01:47:51;;;;;;;46.33;28.23;;;4.80;73.10;;;;;;5053422;28;20397;-78
2021/03/08 01:50:31;;;;;;;44.65;27.23;;;4.70;73.50;;;;;;5052769;28;20032;-78
2021/03/08 01:52:58;;;;;;;50.10;29.15;;;4.70;73.60;;;;;;5052736;28;20033;-78
2021/03/08 01:55:25;;;;;;;45.65;27.38;;;4.70;73.60;;;;;;5034066;28;20404;-78
2021/03/08 01:57:51;;;;;;;49.53;29.17;;;4.60;73.70;;;;;;5036168;28;20064;-78
2021/03/08 02:00:17;;;;;;;48.25;27.52;;;4.60;74.00;;;;;;5036028;28;20032;-78
2021/03/08 02:02:43;;;;;;;47.20;27.63;;;4.60;73.90;;;;;;5051925;28;20513;-78
2021/03/08 02:05:13;;;;;;;49.13;27.75;;;4.60;74.10;;;;;;5052023;28;20037;-78
2021/03/08 02:07:39;;;;;;;49.80;28.83;;;4.60;74.20;;;;;;5053307;28;20112;-78
2021/03/08 02:10:13;;;;;;;54.60;29.70;;;4.60;74.10;;;;;;5052620;28;20056;-78
2021/03/08 02:12:47;;;;;;;46.80;28.20;;;4.60;74.40;;;;;;5053214;28;20065;-78
2021/03/08 02:15:32;;;;;;;48.20;26.60;;;4.60;74.40;;;;;;5052583;28;20501;-78
2021/03/08 02:18:32;;;;;;;46.38;27.90;;;4.60;74.40;;;;;;5054356;28;20029;-78
2021/03/08 02:21:23;;;;;;;46.45;27.33;;;4.60;74.40;;;;;;5031177;28;20041;-78
2021/03/08 02:24:25;;;;;;;46.05;27.20;;;4.50;74.50;;;;;;5052125;28;20079;-78
2021/03/08 02:27:18;;;;;;;49.67;27.50;;;4.60;74.50;;;;;;5039756;28;20027;-78
2021/03/08 02:29:50;;;;;;;49.92;28.70;;;4.60;74.40;;;;;;5053311;28;20021;-78
2021/03/08 02:32:18;;;;;;;51.05;29.25;;;4.60;74.50;;;;;;5053634;28;20029;-78
2021/03/08 02:35:04;;;;;;;48.15;27.02;;;4.60;74.50;;;;;;5053021;28;20025;-78
2021/03/08 02:37:34;;;;;;;47.90;27.80;;;4.60;74.60;;;;;;5052770;28;20056;-78
2021/03/08 02:40:08;;;;;;;52.95;28.77;;;4.60;74.50;;;;;;5052903;28;20437;-78
2021/03/08 02:42:38;;;;;;;53.00;29.20;;;4.60;74.60;;;;;;5034994;28;20117;-78
2021/03/08 02:45:07;;;;;;;55.47;30.67;;;4.60;74.70;;;;;;5051328;28;20086;-78
2021/03/08 02:47:37;;;;;;;52.28;29.33;;;4.50;74.80;;;;;;5051953;28;20102;-78
2021/03/08 02:50:06;;;;;;;56.03;29.92;;;4.50;74.80;;;;;;5051579;28;20029;-78
2021/03/08 02:52:35;;;;;;;57.42;31.10;;;4.50;74.90;;;;;;5051401;28;20386;-78
2021/03/08 02:55:04;;;;;;;57.63;31.02;;;4.50;74.90;;;;;;5051306;28;20079;-78
2021/03/08 02:57:35;;;;;;;55.20;30.92;;;4.50;75.10;;;;;;5050649;28;20063;-78
2021/03/08 03:00:08;;;;;;;51.78;30.02;;;4.50;75.00;;;;;;5051152;28;20027;-78
2021/03/08 03:02:34;;;;;;;52.55;29.90;;;4.50;75.30;;;;;;5049328;28;20032;-78
2021/03/08 03:05:06;;;;;;;51.80;29.27;;;4.40;75.10;;;;;;5052271;28;20413;-78
2021/03/08 03:07:34;;;;;;;52.53;29.00;;;4.40;75.30;;;;;;5050374;28;20029;-78
2021/03/08 03:10:02;;;;;;;49.72;28.88;;;4.30;75.50;;;;;;5051548;28;20087;-78
2021/03/08 03:12:29;;;;;;;53.37;29.87;;;4.40;75.70;;;;;;5051884;28;20397;-78
2021/03/08 03:14:55;;;;;;;59.80;31.02;;;4.40;75.60;;;;;;5051123;28;20442;-78
2021/03/08 03:17:22;;;;;;;56.53;30.80;;;4.40;75.60;;;;;;5034407;28;20045;-78
2021/03/08 03:19:52;;;;;;;53.03;29.98;;;4.30;75.60;;;;;;5051046;28;20029;-78
2021/03/08 03:22:24;;;;;;;60.70;32.80;;;4.30;75.90;;;;;;5051705;28;20090;-78
2021/03/08 03:24:54;;;;;;;57.75;31.05;;;4.30;75.90;;;;;;5050551;28;20481;-78
2021/03/08 03:27:21;;;;;;;54.03;30.27;;;4.30;75.90;;;;;;5051031;28;20579;-78
2021/03/08 03:29:48;;;;;;;60.50;31.73;;;4.30;75.90;;;;;;5034220;28;20025;-78
2021/03/08 03:32:14;;;;;;;55.28;31.67;;;4.30;75.90;;;;;;5034717;28;20037;-78
2021/03/08 03:34:42;;;;;;;60.03;31.75;;;4.30;75.90;;;;;;5050837;28;20052;-78
2021/03/08 03:37:08;;;;;;;55.60;31.17;;;4.30;76.00;;;;;;5050829;28;20025;-78
2021/03/08 03:39:34;;;;;;;59.90;32.17;;;4.20;76.00;;;;;;5018146;28;20025;-78
2021/03/08 03:42:00;;;;;;;57.30;31.60;;;4.20;76.20;;;;;;5051068;28;20033;-78
2021/03/08 03:44:25;;;;;;;57.45;32.28;;;4.20;76.30;;;;;;5051418;28;20033;-76
2021/03/08 03:46:51;;;;;;;57.97;31.27;;;4.20;76.30;;;;;;5052876;28;20435;-76
2021/03/08 03:49:18;;;;;;;62.33;33.15;;;4.10;76.30;;;;;;5052473;28;20029;-76
2021/03/08 03:51:45;;;;;;;56.25;32.08;;;4.20;76.80;;;;;;5015368;28;20030;-77
2021/03/08 03:54:11;;;;;;;60.80;32.10;;;4.10;76.50;;;;;;5040068;28;20021;-76
2021/03/08 03:56:45;;;;;;;53.63;31.13;;;4.20;76.60;;;;;;5052308;28;20401;-76
2021/03/08 03:59:20;;;;;;;54.40;30.88;;;4.10;76.50;;;;;;5052106;28;20486;-76
2021/03/08 04:02:01;;;;;;;60.88;32.17;;;4.10;76.80;;;;;;5050937;28;20395;-77
2021/03/08 04:04:52;;;;;;;60.30;33.40;;;4.10;76.80;;;;;;5050320;28;20389;-76
2021/03/08 04:07:20;;;;;;;60.58;33.53;;;4.10;76.70;;;;;;5052071;28;20045;-77
2021/03/08 04:09:50;;;;;;;54.92;29.98;;;4.10;76.60;;;;;;5053233;28;20025;-77
2021/03/08 04:12:19;;;;;;;63.10;32.88;;;4.10;76.60;;;;;;5056183;28;20025;-77
2021/03/08 04:14:50;;;;;;;62.20;33.83;;;4.10;76.50;;;;;;5053958;28;20424;-77
2021/03/08 04:17:16;;;;;;;58.33;33.15;;;4.10;77.20;;;;;;5055402;28;20366;-76
2021/03/08 04:19:44;;;;;;;56.58;32.25;;;4.10;76.60;;;;;;5054588;28;20023;-76
2021/03/08 04:22:11;;;;;;;53.20;30.85;;;4.10;76.60;;;;;;5055167;28;20507;-76
2021/03/08 04:24:40;;;;;;;56.47;31.95;;;4.10;76.70;;;;;;5055264;28;20032;-76
2021/03/08 04:27:10;;;;;;;58.42;33.05;;;4.00;76.90;;;;;;5054909;28;20049;-77
2021/03/08 04:29:41;;;;;;;61.00;32.65;;;4.00;76.90;;;;;;5054285;28;20021;-76
2021/03/08 04:32:09;;;;;;;64.40;33.58;;;4.00;77.00;;;;;;5054401;28;20095;-76
2021/03/08 04:34:36;;;;;;;59.55;32.42;;;3.90;77.10;;;;;;5038004;28;20100;-76
2021/03/08 04:37:02;;;;;;;61.38;34.25;;;3.90;77.40;;;;;;5054623;28;20033;-76
2021/03/08 04:39:31;;;;;;;61.80;34.55;;;3.80;77.50;;;;;;5037841;28;20094;-76
2021/03/08 04:41:57;;;;;;;66.80;35.05;;;3.80;77.70;;;;;;5055831;28;20056;-76
2021/03/08 04:44:24;;;;;;;73.00;36.45;;;3.80;77.80;;;;;;5037883;28;20025;-76
2021/03/08 04:46:51;;;;;;;66.65;35.40;;;3.80;78.00;;;;;;5053996;28;20042;-76
2021/03/08 04:49:18;;;;;;;66.63;34.33;;;3.80;78.00;;;;;;5055489;28;20024;-78
2021/03/08 04:51:48;;;;;;;65.57;34.10;;;3.80;78.00;;;;;;5054140;28;20029;-78
2021/03/08 04:54:14;;;;;;;;;;;3.80;78.20;;;;;;5055879;28;20082;-78
2021/03/08 04:56:41;;;;;;;63.17;32.72;;;3.70;78.10;;;;;;5055420;28;20015;-78
2021/03/08 04:59:07;;;;;;;61.28;33.80;;;3.70;78.20;;;;;;5037400;28;20054;-78
2021/03/08 05:01:34;;;;;;;66.03;34.30;;;3.70;78.20;;;;;;5053859;28;20082;-78
2021/03/08 05:04:02;;;;;;;69.32;35.65;;;3.70;78.30;;;;;;5053815;28;20040;-78
2021/03/08 05:06:29;;;;;;;71.23;36.73;;;3.70;78.30;;;;;;5053902;28;20017;-78
2021/03/08 05:08:56;;;;;;;67.15;35.35;;;3.70;78.40;;;;;;5054892;28;20263;-78
2021/03/08 05:11:22;;;;;;;74.97;35.97;;;3.70;78.30;;;;;;5036246;28;20493;-77
2021/03/08 05:13:51;;;;;;;62.70;35.42;;;3.70;78.40;;;;;;5053503;28;20044;-77
2021/03/08 05:16:20;;;;;;;70.85;33.67;;;3.70;78.50;;;;;;5054481;28;20114;-77
2021/03/08 05:18:46;;;;;;;62.28;34.10;;;3.70;78.60;;;;;;5054673;28;20025;-77
2021/03/08 05:21:16;;;;;;;65.07;34.63;;;3.70;78.60;;;;;;5052183;28;20535;-77
2021/03/08 05:23:43;;;;;;;69.22;35.15;;;3.70;78.60;;;;;;5063870;28;20029;-78
2021/03/08 05:26:09;;;;;;;71.22;37.08;;;3.70;78.60;;;;;;5057066;28;20037;-78
2021/03/08 05:28:36;;;;;;;61.83;34.55;;;3.70;78.60;;;;;;5036823;28;20029;-78
2021/03/08 05:31:04;;;;;;;68.63;35.70;;;3.60;78.70;;;;;;5020430;28;20029;-78
2021/03/08 05:33:31;;;;;;;69.50;36.10;;;3.60;78.80;;;;;;5054355;28;20059;-78
2021/03/08 05:36:02;;;;;;;72.00;38.25;;;3.50;78.90;;;;;;5052367;28;20359;-78
2021/03/08 05:38:30;;;;;;;69.70;36.83;;;3.50;79.20;;;;;;5053110;28;20025;-78
2021/03/08 05:41:14;;;;;;;71.53;38.03;;;3.50;79.20;;;;;;5052494;28;20112;-78
2021/03/08 05:43:42;;;;;;;75.88;38.38;;;3.60;79.40;;;;;;5080533;28;20111;-77
2021/03/08 05:46:15;;;;;;;75.63;39.40;;;3.50;79.40;;;;;;5052583;28;20033;-77
2021/03/08 05:48:59;;;;;;;77.40;39.53;;;3.60;79.70;;;;;;5053104;28;20037;-78
2021/03/08 05:51:55;;;;;;;74.72;38.58;;;3.50;79.80;;;;;;5052167;28;20451;-78
2021/03/08 05:54:42;;;;;;;73.10;38.55;;;3.50;79.80;;;;;;5052008;28;20090;-78
2021/03/08 05:57:27;;;;;;;72.25;37.47;;;3.50;79.80;;;;;;5053877;28;20416;-78
2021/03/08 06:00:23;;;;;;;69.97;37.08;;;3.40;79.90;;;;;;5054344;28;20031;-78
2021/03/08 06:03:16;;;;;;;68.78;35.95;;;3.30;80.00;;;;;;5052942;28;20509;-78
2021/03/08 06:06:00;;;;;;;68.40;35.88;;;3.30;80.20;;;;;;5036401;28;20140;-78
2021/03/08 06:08:39;;;;;;;70.85;37.92;;;3.30;80.50;;;;;;5052779;28;20028;-78
2021/03/08 06:11:11;;;;;;;70.75;37.05;;;3.30;80.60;;;;;;5052629;28;20385;-78
2021/03/08 06:14:00;;;;;;;77.40;39.85;;;3.30;80.50;;;;;;5052656;28;20032;-78
2021/03/08 06:16:36;;;;;;;83.00;40.78;;;3.30;80.60;;;;;;5052407;28;20037;-78
2021/03/08 06:19:06;;;;;;;84.80;42.03;;;3.30;80.70;;;;;;5036022;28;20041;-78
2021/03/08 06:21:34;;;;;;;84.50;42.95;;;3.40;81.20;;;;;;5052535;28;20017;-77
2021/03/08 06:24:00;;;;;;;93.00;45.20;;;3.30;81.50;;;;;;5052459;28;20028;-77
2021/03/08 06:26:26;;;;;;;84.25;42.13;;;3.30;81.70;;;;;;5052514;28;20036;-76
2021/03/08 06:28:52;;;;;;;86.18;41.25;;;3.30;81.80;;;;;;5052420;28;20028;-77
2021/03/08 06:31:19;;;;;;;90.60;44.78;;;3.30;81.90;;;;;;5035699;28;20063;-77
2021/03/08 06:33:45;;;;;;;82.22;40.55;;;3.30;82.00;;;;;;5052353;28;20516;-77
2021/03/08 06:36:12;;;;;;;84.53;41.80;;;3.30;82.10;;;;;;5053428;28;20024;-77
2021/03/08 06:38:37;;;;;;;95.40;44.53;;;3.30;82.10;;;;;;5052196;28;20033;-77
2021/03/08 06:41:06;;;;;;;80.50;41.25;;;3.30;82.10;;;;;;5052135;28;20489;-77
2021/03/08 06:43:31;;;;;;;80.50;39.55;;;3.30;82.40;;;;;;5053467;28;20470;-77
2021/03/08 06:45:57;;;;;;;79.07;39.03;;;3.30;82.20;;;;;;5052072;28;20025;-77
2021/03/08 06:48:24;;;;;;;83.78;41.25;;;3.40;82.10;;;;;;5053010;28;20504;-77
2021/03/08 06:51:07;;;;;;;82.97;40.95;;;3.40;82.00;;;;;;5052174;28;20055;-77
2021/03/08 06:53:33;;;;;;;85.13;40.10;;;3.40;82.10;;;;;;5053423;28;20363;-76
2021/03/08 06:56:12;;;;;;;79.35;40.80;;;3.50;82.00;;;;;;5053210;28;20028;-77
2021/03/08 06:58:38;;;;;;;80.30;40.65;;;3.50;82.00;;;;;;5053343;28;20029;-76
2021/03/08 07:01:11;;;;;;;72.68;37.33;;;3.60;81.90;;;;;;5051928;28;20387;-76
2021/03/08 07:03:37;;;;;;;74.03;39.60;;;3.60;81.80;;;;;;5036273;28;20029;-77
2021/03/08 07:06:16;;;;;;;71.80;39.50;;;3.70;81.70;;;;;;5051968;28;20029;-79
2021/03/08 07:08:44;;;;;;;71.95;39.25;;;3.80;81.60;;;;;;5035355;28;20040;-79
2021/03/08 07:11:23;;;;;;;80.20;41.00;;;3.80;81.50;;;;;;5050965;28;20117;-79
2021/03/08 07:13:49;;;;;;;79.85;41.63;;;3.80;81.50;;;;;;5051816;28;20040;-79
2021/03/08 07:16:17;;;;;;;86.55;43.03;;;3.80;81.30;;;;;;5053174;28;20047;-79
2021/03/08 07:18:43;;;;;;;90.60;44.80;;;3.90;81.40;;;;;;5051744;28;20025;-79
2021/03/08 07:21:19;;;;;;;74.57;40.42;;;3.90;81.20;;;;;;5035195;28;20032;-79
2021/03/08 07:23:49;;;;;;;73.32;39.22;;;4.00;81.20;;;;;;5051765;28;20025;-79
2021/03/08 07:26:21;;;;;;;;;;;4.00;81.10;;;;;;5051981;28;20013;-79
2021/03/08 07:29:06;;;;;;;87.88;42.22;;;4.00;80.80;;;;;;5052908;28;19908;-79
2021/03/08 07:31:34;;;;;;;73.70;40.03;;;4.10;81.00;;;;;;5034902;28;20186;-79
2021/03/08 07:34:02;;;;;;;86.07;44.17;;;4.10;80.90;;;;;;5035673;28;20120;-79
2021/03/08 07:36:28;;;;;;;83.65;43.08;;;4.10;81.10;;;;;;5051467;28;20473;-79
2021/03/08 07:38:53;;;;;;;80.60;43.22;;;4.20;81.20;;;;;;5051633;28;20075;-79
2021/03/08 07:41:21;;;;;;;83.90;42.95;;;4.20;80.90;;;;;;5034144;28;20029;-79
2021/03/08 07:43:49;;;;;;;77.88;41.40;;;4.20;81.20;;;;;;5050913;28;20079;-79
2021/03/08 07:46:31;;;;;;;81.90;42.33;;;4.20;81.10;;;;;;5055000;28;20044;-79
2021/03/08 07:48:58;;;;;;;78.32;44.10;;;4.30;80.90;;;;;;5055171;28;20098;-79
2021/03/08 07:51:25;;;;;;;83.47;44.13;;;4.30;81.60;;;;;;5022440;28;20396;-79
2021/03/08 07:54:01;;;;;;;77.53;41.10;;;4.30;80.90;;;;;;5055179;28;20029;-79
2021/03/08 07:56:27;;;;;;;89.70;44.63;;;4.40;80.60;;;;;;5053986;28;20057;-79
2021/03/08 07:58:54;;;;;;;82.45;43.20;;;4.50;80.40;;;;;;5087991;28;20440;-79
2021/03/08 08:01:20;;;;;;;70.60;40.13;;;4.60;80.50;;;;;;5054398;28;20390;-80
2021/03/08 08:03:46;;;;;;;79.72;43.42;;;4.70;80.10;;;;;;5055260;28;20037;-80
2021/03/08 08:06:17;;;;;;;82.63;42.72;;;4.70;79.80;;;;;;5054686;28;20432;-79
2021/03/08 08:08:48;;;;;;;85.00;43.20;;;4.80;79.70;;;;;;5055687;28;20386;-80
2021/03/08 08:11:15;;;;;;;87.45;43.63;;;4.90;79.50;;;;;;5055556;28;20029;-79
2021/03/08 08:13:53;;;;;;;77.38;41.72;;;5.00;79.30;;;;;;5054510;28;20036;-79
2021/03/08 08:16:23;;;;;;;91.90;45.88;;;5.00;79.20;;;;;;5054614;28;20055;-80
2021/03/08 08:18:52;;;;;;;82.35;45.03;;;5.00;79.10;;;;;;5054495;28;20029;-80
2021/03/08 08:21:20;;;;;;;80.15;42.78;;;5.10;78.80;;;;;;5055811;28;20028;-80
2021/03/08 08:24:00;;;;;;;75.43;43.25;;;5.00;78.40;;;;;;5055973;28;20125;-79
2021/03/08 08:26:26;;;;;;;76.28;42.67;;;5.10;78.50;;;;;;5055902;28;20068;-80
2021/03/08 08:28:54;;;;;;;79.00;42.83;;;5.20;78.80;;;;;;5038100;28;20033;-80
2021/03/08 08:31:20;;;;;;;77.95;40.42;;;5.20;78.00;;;;;;5038075;28;20064;-79
2021/03/08 08:33:46;;;;;;;77.72;42.53;;;5.30;77.80;;;;;;5038151;28;20037;-80
2021/03/08 08:36:13;;;;;;;73.13;40.92;;;5.40;76.60;;;;;;5055325;28;20020;-80
2021/03/08 08:38:41;;;;;;;71.00;39.42;;;5.40;76.60;;;;;;5054345;28;20021;-79
2021/03/08 08:41:33;;;;;;;71.57;38.92;;;5.50;76.60;;;;;;5038162;28;20504;-78
2021/03/08 08:44:08;;;;;;;56.72;32.47;;;5.80;77.00;;;;;;5055401;28;20037;-78
2021/03/08 08:46:39;;;;;;;57.80;34.22;;;6.10;76.60;;;;;;5054533;28;20373;-78
2021/03/08 08:49:18;;;;;;;69.68;41.08;;;6.30;75.60;;;;;;5053881;28;20103;-80
2021/03/08 08:51:45;;;;;;;68.70;40.05;;;6.50;74.70;;;;;;5054211;28;20029;-80
2021/03/08 08:54:10;;;;;;;72.28;41.13;;;6.50;72.90;;;;;;5054903;28;20075;-80
2021/03/08 08:56:48;;;;;;;76.63;42.53;;;6.40;72.80;;;;;;5052069;28;20036;-80
2021/03/08 08:59:21;;;;;;;77.90;43.20;;;6.30;73.50;;;;;;5053729;28;20398;-80
2021/03/08 09:01:47;;;;;;;76.57;42.05;;;6.20;73.40;;;;;;5055372;28;20028;-80
2021/03/08 09:04:18;;;;;;;76.40;41.17;;;6.10;73.50;;;;;;5053743;28;20115;-77
2021/03/08 09:06:59;;;;;;;77.47;39.83;;;6.00;73.60;;;;;;5053667;28;20032;-77
2021/03/08 09:09:30;;;;;;;72.85;38.50;;;6.00;73.40;;;;;;5053534;28;20115;-76
2021/03/08 09:12:06;;;;;;;76.82;40.40;;;6.00;73.70;;;;;;5053780;28;20354;-76
2021/03/08 09:14:37;;;;;;;70.57;39.40;;;6.10;73.90;;;;;;5054615;28;20175;-76
2021/03/08 09:17:19;;;;;;;71.95;41.25;;;6.20;73.50;;;;;;5055115;28;20033;-76
2021/03/08 09:19:55;;;;;;;69.03;38.97;;;6.20;73.30;;;;;;5053030;28;20469;-76
2021/03/08 09:22:26;;;;;;;75.25;41.80;;;6.30;73.70;;;;;;5054588;28;20101;-76
2021/03/08 09:24:56;;;;;;;67.30;38.05;;;6.30;73.50;;;;;;5066876;28;20040;-76
2021/03/08 09:27:30;;;;;;;64.03;38.20;;;6.40;73.30;;;;;;5040855;28;20040;-76
2021/03/08 09:30:12;;;;;;;68.07;37.10;;;6.50;72.30;;;;;;5054107;28;20048;-76
2021/03/08 09:32:55;;;;;;;60.22;36.97;;;6.50;71.50;;;;;;5054403;28;20083;-76
2021/03/08 09:35:38;;;;;;;60.92;36.47;;;6.50;71.00;;;;;;5053067;28;20818;-76
2021/03/08 09:38:07;;;;;;;62.53;35.10;;;6.50;71.30;;;;;;5045713;28;20115;-76
2021/03/08 09:40:40;;;;;;;61.63;36.90;;;6.60;70.80;;;;;;5053137;28;20505;-76
2021/03/08 09:43:31;;;;;;;61.05;35.10;;;6.60;70.80;;;;;;5052985;28;20428;-76
2021/03/08 09:46:01;;;;;;;59.30;35.22;;;6.60;70.50;;;;;;5052879;28;20429;-76
2021/03/08 09:48:29;;;;;;;67.03;36.75;;;6.60;70.50;;;;;;5054046;28;20041;-76
2021/03/08 09:51:05;;;;;;;63.78;35.88;;;6.70;70.90;;;;;;5052639;28;20028;-76
2021/03/08 09:53:33;;;;;;;58.88;36.10;;;6.80;70.00;;;;;;5054133;28;20024;-76
2021/03/08 09:56:04;;;;;;;54.50;34.10;;;6.90;69.90;;;;;;5053016;28;20021;-77
2021/03/08 09:58:30;;;;;;;53.67;32.55;;;6.90;70.10;;;;;;5036327;28;20124;-78
2021/03/08 10:00:55;;;;;;;56.92;33.72;;;6.90;70.20;;;;;;5053024;28;20055;-78
2021/03/08 10:03:21;;;;;;;57.58;34.28;;;7.00;70.00;;;;;;5036224;28;20055;-77
2021/03/08 10:05:48;;;;;;;52.70;32.70;;;7.00;70.40;;;;;;5054158;28;20079;-77
2021/03/08 10:08:21;;;;;;;56.40;33.40;;;7.00;70.00;;;;;;5053709;28;20036;-77
2021/03/08 10:10:51;;;;;;;57.25;33.80;;;7.00;70.30;;;;;;5052784;28;20032;-77
2021/03/08 10:13:19;;;;;;;59.22;32.80;;;7.10;70.60;;;;;;5052212;28;20116;-76
2021/03/08 10:15:47;;;;;;;57.65;34.75;;;7.10;70.30;;;;;;5035435;28;20064;-76
2021/03/08 10:18:14;;;;;;;63.20;35.10;;;7.20;69.90;;;;;;5033855;28;20486;-76
2021/03/08 10:20:49;;;;;;;65.63;36.05;;;7.20;69.80;;;;;;5038898;28;20817;-76
2021/03/08 10:23:17;;;;;;;59.17;34.67;;;7.20;69.10;;;;;;5054029;28;20459;-76
2021/03/08 10:25:43;;;;;;;58.22;34.80;;;7.20;69.50;;;;;;5053887;28;20023;-76
2021/03/08 10:28:09;;;;;;;62.47;34.88;;;7.20;70.10;;;;;;5035449;28;20025;-82
2021/03/08 10:30:35;;;;;;;64.88;37.17;;;7.20;69.90;;;;;;5035801;28;20488;-82
2021/03/08 10:33:07;;;;;;;69.80;38.00;;;7.20;69.70;;;;;;5054167;28;20079;-82
2021/03/08 10:35:39;;;;;;;71.85;37.63;;;7.10;69.80;;;;;;5053740;28;20032;-82
2021/03/08 10:38:06;;;;;;;57.17;34.38;;;7.20;70.40;;;;;;5053494;28;20017;-82
2021/03/08 10:40:32;;;;;;;50.90;32.10;;;7.20;70.40;;;;;;5052502;28;20028;-82
2021/03/08 10:42:59;;;;;;;52.50;32.17;;;7.30;70.20;;;;;;5052317;28;20508;-82
2021/03/08 10:45:26;;;;;;;44.15;28.85;;;7.50;69.60;;;;;;5052749;28;20420;-82
2021/03/08 10:48:27;;;;;;;50.00;31.92;;;7.50;69.40;;;;;;5052862;28;20048;-82
2021/03/08 10:50:55;;;;;;;64.35;36.28;;;7.70;69.20;;;;;;5004618;28;20033;-81
2021/03/08 10:53:23;;;;;;;55.47;33.90;;;7.70;68.70;;;;;;5035258;28;20029;-78
2021/03/08 10:55:49;;;;;;;66.07;36.70;;;7.80;69.10;;;;;;5051643;28;20037;-78
2021/03/08 10:58:15;;;;;;;60.53;35.63;;;7.90;68.00;;;;;;5051378;28;20037;-78
2021/03/08 11:00:43;;;;;;;57.88;35.38;;;7.80;68.10;;;;;;5052352;28;20024;-78
2021/03/08 11:03:38;;;;;;;60.65;36.05;;;7.80;68.20;;;;;;5053219;28;20029;-78
2021/03/08 11:06:05;;;;;;;58.70;34.70;;;7.80;68.20;;;;;;5033350;28;20490;-78
2021/03/08 11:08:32;;;;;;;60.47;35.70;;;7.80;68.10;;;;;;5016469;28;20041;-78
2021/03/08 11:10:57;;;;;;;61.72;35.47;;;7.80;68.40;;;;;;5020695;28;20386;-78
2021/03/08 11:13:32;;;;;;;58.55;34.92;;;7.90;68.30;;;;;;5062555;28;20052;-78
2021/03/08 11:16:09;;;;;;;64.05;36.00;;;7.90;68.40;;;;;;5061889;28;20029;-78
2021/03/08 11:18:35;;;;;;;58.80;34.15;;;7.90;68.20;;;;;;5056784;28;20024;-77
2021/03/08 11:21:33;;;;;;;57.75;35.40;;;8.00;68.10;;;;;;5056452;28;20021;-78
2021/03/08 11:24:19;;;;;;;57.33;32.70;;;8.00;68.20;;;;;;5057116;28;20022;-78
2021/03/08 11:27:15;;;;;;;57.42;33.83;;;8.10;68.10;;;;;;5055837;28;20406;-77
2021/03/08 11:29:54;;;;;;;58.53;35.63;;;8.10;67.60;;;;;;5056021;28;20029;-76
2021/03/08 11:32:23;;;;;;;60.80;34.58;;;8.10;67.00;;;;;;5055932;28;20029;-77
2021/03/08 11:34:51;;;;;;;52.85;32.85;;;8.10;67.60;;;;;;5055807;28;20036;-77
2021/03/08 11:37:18;;;;;;;55.05;34.20;;;8.10;67.90;;;;;;5055563;28;20025;-76
2021/03/08 11:39:52;;;;;;;56.22;34.00;;;8.10;67.70;;;;;;5056614;28;20021;-76
2021/03/08 11:42:20;;;;;;;55.80;34.28;;;8.20;68.50;;;;;;5055893;28;20021;-77
2021/03/08 11:44:47;;;;;;;54.92;33.30;;;8.20;68.10;;;;;;5056803;28;20028;-76
2021/03/08 11:47:14;;;;;;;55.05;32.03;;;8.30;67.60;;;;;;5055009;28;20048;-77
2021/03/08 11:49:41;;;;;;;49.35;30.13;;;8.30;67.40;;;;;;5055441;28;20033;-77
2021/03/08 11:52:07;;;;;;;50.72;31.50;;;8.40;67.40;;;;;;5055496;28;20029;-76
2021/03/08 11:54:34;;;;;;;54.67;31.88;;;8.50;67.40;;;;;;5056655;28;20519;-77
2021/03/08 11:57:01;;;;;;;59.55;33.88;;;8.60;67.00;;;;;;5056662;28;20037;-76
2021/03/08 11:59:27;;;;;;;60.83;35.65;;;8.70;66.80;;;;;;5054952;28;20393;-77
2021/03/08 12:01:53;;;;;;;55.85;34.55;;;8.70;66.20;;;;;;5055341;28;20029;-77
2021/03/08 12:04:19;;;;;;;60.78;34.58;;;8.70;65.90;;;;;;5056639;28;20025;-76
2021/03/08 12:06:45;;;;;;;56.03;33.38;;;8.70;65.90;;;;;;5038740;28;20493;-77
2021/03/08 12:09:10;;;;;;;55.97;33.25;;;8.70;65.90;;;;;;5038565;28;20025;-77
2021/03/08 12:11:36;;;;;;;56.30;33.08;;;8.60;66.40;;;;;;5038540;28;20111;-77
2021/03/08 12:14:02;;;;;;;57.30;32.92;;;8.60;66.90;;;;;;5037852;28;20558;-77
2021/03/08 12:16:27;;;;;;;52.92;30.85;;;8.50;66.60;;;;;;5054810;28;20401;-76
2021/03/08 12:18:53;;;;;;;53.05;32.30;;;8.60;66.90;;;;;;5054848;28;20576;-76
2021/03/08 12:21:19;;;;;;;54.88;32.42;;;8.50;66.40;;;;;;5038517;28;20493;-76
2021/03/08 12:23:45;;;;;;;52.75;32.63;;;8.60;66.40;;;;;;5054422;28;20061;-76
2021/03/08 12:26:12;;;;;;;50.90;31.17;;;8.50;66.10;;;;;;5055454;28;20025;-76
2021/03/08 12:28:38;;;;;;;54.80;33.50;;;8.60;66.50;;;;;;5054873;28;20029;-76
2021/03/08 12:31:04;;;;;;;55.97;31.85;;;8.80;66.40;;;;;;5054116;28;20033;-76
2021/03/08 12:33:32;;;;;;;52.25;31.38;;;8.90;66.40;;;;;;5054343;28;20033;-76
2021/03/08 12:35:59;;;;;;;49.38;28.75;;;9.00;65.50;;;;;;5037763;28;20035;-76
2021/03/08 12:38:25;;;;;;;51.67;32.05;;;9.00;65.30;;;;;;5053446;28;20048;-76
2021/03/08 12:40:51;;;;;;;59.40;34.50;;;9.00;65.20;;;;;;5020693;28;20033;-76
2021/03/08 12:43:16;;;;;;;50.03;30.55;;;8.90;64.60;;;;;;5020460;28;20025;-76
2021/03/08 12:45:42;;;;;;;44.83;28.95;;;8.90;65.20;;;;;;5037507;28;20033;-76
2021/03/08 12:48:07;;;;;;;49.10;30.70;;;9.00;65.70;;;;;;5053789;28;20045;-76
2021/03/08 12:50:33;;;;;;;48.90;31.60;;;9.10;65.40;;;;;;5054041;28;20124;-76
2021/03/08 12:52:59;;;;;;;53.40;32.33;;;9.20;64.70;;;;;;5037815;28;20040;-76